Latest Weather Observations for Hartz Mountains

IDT60801

Issued at 8:31 am EST Monday 15 July 2024 (issued every 10 minutes, with the page automatically refreshed every 10 minutes)

About weather observations | Map of weather stations | Latest weather observations for TAS | Other Formats
Station Details ID: 094191 Name: HARTZ MOUNTAIN (KEOGHS PIMPLE) Lat: -43.20 Lon: 146.77 Height: 831.0 m
Data from the previous 72 hours. | See also: Recent months at Hartz Mountains
Date/Time
EST
Temp
°C
App
Temp
°C
Dew
Point
°C
Rel
Hum
%
Delta-T
°C
Wind Press
QNH
hPa
Press
MSL
hPa
Rain since
9am
mm
Dir  Spd
km/h
Gust
km/h
Spd
kts
Gust
kts
15/08:30am 6.9 -1.2 6.8 99 0.0 SSE 39 61 21 33 - - 32.6
15/08:00am 6.8 -3.5 6.5 98 0.1 S 50 76 27 41 - - 31.6
15/07:30am 6.7 -3.6 6.4 98 0.1 S 50 72 27 39 - - 30.4
15/07:00am 6.7 -3.2 6.6 99 0.0 S 48 69 26 37 - - 30.0
15/06:30am 6.6 -2.6 6.5 99 0.0 SSE 44 67 24 36 - - 29.4
15/06:00am 6.6 -2.4 6.5 99 0.0 SSE 43 61 23 33 - - 28.6
15/05:32am 6.7 -1.5 6.6 99 0.0 SSE 39 67 21 36 - - 27.6
15/05:30am 6.6 -1.2 6.5 99 0.0 SSE 37 52 20 28 - - 27.4
15/05:06am 6.6 -0.3 6.5 99 0.0 SSE 32 50 17 27 - - 26.8
15/05:00am 6.7 -0.2 6.6 99 0.0 SSE 32 43 17 23 - - 26.8
15/04:46am 6.6 -0.5 6.5 99 0.0 SSE 33 52 18 28 - - 26.6
15/04:30am 6.5 -1.0 6.4 99 0.0 SSE 35 50 19 27 - - 26.0
15/04:01am 6.3 -2.4 6.2 99 0.0 S 41 63 22 34 - - 25.0
15/04:00am 6.3 -2.7 6.2 99 0.0 S 43 63 23 34 - - 25.0
15/03:57am 6.3 -2.0 6.2 99 0.0 S 39 63 21 34 - - 25.0
15/03:30am 5.4 -3.1 5.3 99 0.0 SSW 39 57 21 31 - - 24.2
15/03:08am 5.3 -3.2 5.2 99 0.0 SSW 39 57 21 31 - - 22.8
15/03:00am 5.1 -3.8 5.0 99 0.0 SW 41 56 22 30 - - 22.6
15/02:30am 4.7 -6.0 4.6 99 0.0 SW 50 69 27 37 - - 21.6
15/02:00am 4.2 -7.4 4.1 99 0.0 SW 54 80 29 43 - - 20.4
15/01:30am 3.8 -9.2 3.7 99 0.0 SW 61 83 33 45 - - 19.2
15/01:00am 3.6 -10.2 3.5 99 0.0 SW 65 89 35 48 - - 16.6
15/12:30am 3.5 -9.5 3.4 99 0.0 SW 61 87 33 47 - - 15.4
15/12:27am 3.5 -8.8 3.4 99 0.0 SW 57 87 31 47 - - 15.2
15/12:00am 3.2 -8.2 3.1 99 0.0 SW 52 74 28 40 - - 14.2
 
Date/Time
EST
Temp
°C
App
Temp
°C
Dew
Point
°C
Rel
Hum
%
Delta-T
°C
Wind Press
QNH
hPa
Press
MSL
hPa
Rain since
9am
mm
Dir  Spd
km/h
Gust
km/h
Spd
kts
Gust
kts
14/11:30pm 2.9 -9.3 2.8 99 0.0 SW 56 87 30 47 - - 12.0
14/11:00pm 2.5 -9.9 2.4 99 0.0 SW 57 85 31 46 - - 10.6
14/10:44pm 2.3 -8.8 2.2 99 0.0 SW 50 78 27 42 - - 9.8
14/10:35pm 2.3 -9.2 2.2 99 0.0 SW 52 82 28 44 - - 9.2
14/10:34pm 2.3 -9.6 2.2 99 0.0 SW 54 85 29 46 - - 9.2
14/10:30pm 2.4 -10.1 2.3 99 0.0 SW 57 87 31 47 - - 9.0
14/10:04pm 2.0 -12.1 1.7 98 0.1 SW 65 91 35 49 - - 8.6
14/10:00pm 2.0 -12.8 1.7 98 0.1 SW 69 95 37 51 - - 8.4
14/09:50pm 1.9 -11.8 1.6 98 0.1 SW 63 98 34 53 - - 8.4
14/09:30pm 1.7 -11.3 1.4 98 0.1 SW 59 80 32 43 - - 8.2
14/09:00pm 1.4 -11.1 1.1 98 0.1 SW 56 78 30 42 - - 7.8
14/08:30pm 1.0 -9.6 0.7 98 0.1 SW 46 69 25 37 - - 7.2
14/08:00pm 0.7 -10.3 0.4 98 0.1 SW 48 78 26 42 - - 6.4
14/07:30pm 0.4 -10.7 0.1 98 0.1 SW 48 83 26 45 - - 6.0
14/07:00pm 0.3 -10.8 0.0 98 0.1 SW 48 72 26 39 - - 5.8
14/06:30pm 0.2 -11.7 -0.1 98 0.1 SSW 52 83 28 45 - - 5.8
14/06:00pm 0.3 -12.9 -0.1 97 0.2 SW 59 83 32 45 - - 5.8
14/05:30pm 0.4 -11.9 -0.2 96 0.2 SSW 54 83 29 45 - - 5.6
14/05:00pm 0.5 -11.3 0.1 97 0.2 SW 52 80 28 43 - - 5.4
14/04:30pm 0.4 -10.3 0.1 98 0.1 SW 46 69 25 37 - - 5.4
14/04:00pm 0.5 -11.0 0.2 98 0.1 SSW 50 70 27 38 - - 5.2
14/03:49pm 0.4 -9.7 0.1 98 0.1 SSW 43 72 23 39 - - 5.2
14/03:30pm 0.6 -7.1 0.2 97 0.2 SSW 30 52 16 28 - - 5.0
14/03:00pm 0.9 -6.8 0.2 95 0.3 SSW 30 54 16 29 - - 4.6
14/02:34pm 1.1 -6.1 0.7 97 0.2 SSW 28 48 15 26 - - 4.6
14/02:30pm 1.0 -5.5 0.4 96 0.2 SW 24 48 13 26 - - 4.6
14/02:00pm 1.1 -6.2 0.2 94 0.3 SW 28 54 15 29 - - 4.6
14/01:30pm 1.2 -8.1 0.5 95 0.3 SW 39 65 21 35 - - 4.6
14/01:00pm 1.1 -7.5 0.5 96 0.2 SSW 35 59 19 32 - - 4.4
14/12:30pm 1.4 -6.7 0.8 96 0.2 SSW 33 54 18 29 - - 4.2
14/12:00pm 1.7 -6.4 1.3 97 0.2 SSW 33 57 18 31 - - 3.8
14/11:49am 1.5 -5.6 1.1 97 0.2 SSW 28 46 15 25 - - 3.6
14/11:30am 1.8 -4.1 1.5 98 0.1 SW 22 35 12 19 - - 3.4
14/11:00am 1.4 -4.6 1.0 97 0.2 SW 22 35 12 19 - - 3.0
14/10:30am 1.4 -5.8 1.0 97 0.2 SSW 28 44 15 24 - - 2.6
14/10:05am 1.1 -7.1 0.5 96 0.2 SW 33 52 18 28 - - 2.4
14/10:00am 1.1 -7.4 0.7 97 0.2 SW 35 50 19 27 - - 2.4
14/09:30am 1.4 -6.5 1.1 98 0.1 SSW 32 52 17 28 - - 2.2
14/09:12am 1.1 -7.4 0.8 98 0.1 SSW 35 54 19 29 - - 0.2
14/09:00am 1.0 -7.9 0.7 98 0.1 SSW 37 54 20 29 - - 0.8
14/08:54am 0.9 -6.3 0.6 98 0.1 SSW 28 46 15 25 - - 0.8
14/08:30am 0.7 -7.3 0.4 98 0.1 SSW 32 46 17 25 - - 0.6
14/08:00am 0.5 -5.3 0.1 97 0.2 SW 20 30 11 16 - - 0.6
14/07:30am 0.8 -7.4 0.5 98 0.1 SSW 33 46 18 25 - - 0.6
14/07:10am 0.8 -6.8 0.5 98 0.1 SSW 30 48 16 26 - - 0.6
14/07:00am 0.7 -6.9 0.4 98 0.1 SSW 30 41 16 22 - - 0.6
14/06:53am 0.8 -6.4 0.5 98 0.1 SSW 28 46 15 25 - - 0.6
14/06:30am 0.6 -5.1 0.3 98 0.1 SW 20 30 11 16 - - 0.6
14/06:13am 0.7 -6.9 0.4 98 0.1 SSW 30 48 16 26 - - 0.6
14/06:00am 0.5 -6.8 0.1 97 0.2 SW 28 37 15 20 - - 0.6
14/05:30am 0.5 -8.1 0.1 97 0.2 SSW 35 50 19 27 - - 0.6
14/05:00am 0.5 -6.8 0.1 97 0.2 SW 28 41 15 22 - - 0.6
14/04:30am 0.4 -7.7 0.0 97 0.2 SW 32 50 17 27 - - 0.6
14/04:28am 0.4 -7.7 0.0 97 0.2 SW 32 50 17 27 - - 0.6
14/04:00am 0.3 -7.4 0.0 98 0.1 SSW 30 41 16 22 - - 0.6
14/03:30am 0.2 -9.2 -0.2 97 0.2 SW 39 52 21 28 - - 0.6
14/03:20am 0.3 -7.0 -0.3 96 0.2 SW 28 46 15 25 - - 0.6
14/03:00am 0.2 -7.1 -0.1 98 0.1 SW 28 43 15 23 - - 0.6
14/02:30am 0.1 -6.9 -0.2 98 0.1 SW 26 39 14 21 - - 0.6
14/02:00am 0.2 -7.1 -0.2 97 0.2 SW 28 41 15 22 - - 0.6
14/01:30am 0.1 -7.2 -0.2 98 0.1 SW 28 39 15 21 - - 0.6
14/01:00am 0.0 -7.7 -0.3 98 0.1 SW 30 41 16 22 - - 0.6
14/12:30am 0.1 -6.5 -0.3 97 0.2 SW 24 39 13 21 - - 0.6
14/12:00am -0.1 -7.1 -0.8 95 0.3 SW 26 39 14 21 - - 0.6
 
Date/Time
EST
Temp
°C
App
Temp
°C
Dew
Point
°C
Rel
Hum
%
Delta-T
°C
Wind Press
QNH
hPa
Press
MSL
hPa
Rain since
9am
mm
Dir  Spd
km/h
Gust
km/h
Spd
kts
Gust
kts
13/11:30pm -0.1 -6.8 -0.8 95 0.3 SW 24 39 13 21 - - 0.6
13/11:00pm 0.0 -7.8 -0.7 95 0.3 SW 30 44 16 24 - - 0.6
13/10:30pm 0.1 -8.1 -0.7 94 0.3 SW 32 43 17 23 - - 0.6
13/10:00pm 0.2 -7.9 -0.5 95 0.3 SW 32 43 17 23 - - 0.6
13/09:30pm 0.3 -8.1 -0.8 92 0.4 SW 33 41 18 22 - - 0.6
13/09:00pm 0.1 -7.7 -0.7 94 0.3 SW 30 37 16 20 - - 0.6
13/08:30pm 0.3 -7.9 -0.7 93 0.4 SW 32 37 17 20 - - 0.6
13/08:00pm 0.3 -7.5 -0.5 94 0.3 SW 30 35 16 19 - - 0.6
13/07:30pm 0.2 -5.6 -0.4 96 0.2 SW 20 28 11 15 - - 0.6
13/07:00pm 0.5 -4.7 0.1 97 0.2 SW 17 26 9 14 - - 0.6
13/06:30pm 0.5 -3.6 0.1 97 0.2 SW 11 17 6 9 - - 0.6
13/06:00pm 0.5 -3.9 0.1 97 0.2 SW 13 20 7 11 - - 0.6
13/05:30pm 0.4 -4.1 -0.2 96 0.2 SSW 13 20 7 11 - - 0.6
13/05:00pm 0.6 -4.2 -0.1 95 0.3 SW 15 20 8 11 - - 0.6
13/04:30pm 1.4 -3.7 1.0 97 0.2 WSW 17 26 9 14 - - 0.6
13/04:00pm 1.5 -2.9 0.6 94 0.4 SSW 13 20 7 11 - - 0.6
13/03:30pm 2.4 -1.8 1.7 95 0.3 WSW 13 22 7 12 - - 0.6
13/03:00pm 1.9 -2.4 1.2 95 0.3 SSW 13 20 7 11 - - 0.6
13/02:30pm 2.5 -2.1 1.5 93 0.4 WSW 15 20 8 11 - - 0.2
13/02:00pm 1.8 -3.6 1.1 95 0.3 WSW 19 26 10 14 - - 0.2
13/01:30pm 2.0 -4.0 0.8 92 0.5 WSW 22 30 12 16 - - 0.2
13/01:00pm 2.3 -3.0 1.7 96 0.2 WSW 19 24 10 13 - - 0.2
13/12:30pm 2.6 -1.9 1.9 95 0.3 WNW 15 20 8 11 - - 0.2
13/12:00pm 3.3 -0.7 2.9 97 0.2 W 13 22 7 12 - - 0.2
13/11:30am 2.2 -2.8 1.5 95 0.3 W 17 26 9 14 - - 0.2
13/11:00am 2.4 -2.2 1.7 95 0.3 WNW 15 20 8 11 - - 0.2
13/10:30am 2.5 -1.7 1.9 96 0.2 W 13 20 7 11 - - 0.2
13/10:00am 2.2 -1.6 1.9 98 0.1 W 11 20 6 11 - - 0.0
13/09:30am 1.6 -3.0 1.5 99 0.0 W 15 22 8 12 - - 0.0
13/09:00am 1.2 -3.1 1.1 99 0.0 WSW 13 19 7 10 - - 2.2
13/08:30am 1.1 -3.2 1.0 99 0.0 W 13 24 7 13 - - 2.0
13/08:00am 1.0 -4.1 0.7 98 0.1 W 17 24 9 13 - - 1.8
13/07:30am 0.7 -4.8 0.4 98 0.1 WSW 19 37 10 20 - - 1.8
13/07:00am 0.9 -5.2 0.6 98 0.1 WSW 22 35 12 19 - - 1.8
13/06:30am 1.0 -4.5 0.7 98 0.1 W 19 26 10 14 - - 1.6
13/06:00am 1.0 -4.1 0.6 97 0.2 W 17 30 9 16 - - 1.6
13/05:30am 1.2 -3.9 0.9 98 0.1 WNW 17 30 9 16 - - 1.6
13/05:00am 1.3 -3.8 1.0 98 0.1 WNW 17 30 9 16 - - 1.4
13/04:30am 1.2 -3.9 0.6 96 0.2 W 17 28 9 15 - - 1.4
13/04:00am 1.3 -3.8 0.7 96 0.2 W 17 30 9 16 - - 1.4
13/03:30am 1.3 -3.8 0.9 97 0.2 W 17 28 9 15 - - 1.4
13/03:00am 1.4 -4.2 1.0 97 0.2 WNW 20 33 11 18 - - 1.4
13/02:30am 1.6 -4.8 1.2 97 0.2 WNW 24 32 13 17 - - 1.4
13/02:00am 1.6 -5.9 1.2 97 0.2 W 30 44 16 24 - - 1.4
13/01:30am 1.8 -6.7 1.2 96 0.2 W 35 56 19 30 - - 1.4
13/01:28am 1.8 -6.0 1.4 97 0.2 W 32 56 17 30 - - 1.4
13/01:00am 2.0 -5.1 1.6 97 0.2 W 28 43 15 23 - - 1.4
13/12:30am 2.1 -6.3 1.8 98 0.1 WNW 35 69 19 37 - - 1.4
13/12:00am 2.3 -6.8 2.0 98 0.1 W 39 69 21 37 - - 1.2
 
Date/Time
EST
Temp
°C
App
Temp
°C
Dew
Point
°C
Rel
Hum
%
Delta-T
°C
Wind Press
QNH
hPa
Press
MSL
hPa
Rain since
9am
mm
Dir  Spd
km/h
Gust
km/h
Spd
kts
Gust
kts
12/11:48pm 2.5 -7.4 1.9 96 0.2 W 43 61 23 33 - - 1.0
12/11:44pm 2.6 -7.4 2.2 97 0.2 W 44 61 24 33 - - 1.0
12/11:30pm 2.5 -10.8 1.9 96 0.2 W 61 80 33 43 - - 1.0
12/11:00pm 2.9 -8.6 2.5 97 0.2 W 52 70 28 38 - - 1.0
12/10:30pm 3.1 -7.6 2.5 96 0.3 W 48 76 26 41 - - 1.0
12/10:26pm 3.1 -8.4 2.5 96 0.3 W 52 76 28 41 - - 1.0
12/10:15pm 3.0 -5.6 2.7 98 0.1 WNW 37 65 20 35 - - 0.8
12/10:00pm 3.3 -3.9 3.2 99 0.0 WNW 30 43 16 23 - - 0.8
12/09:30pm 3.4 -3.0 3.3 99 0.0 W 26 43 14 23 - - 0.8
12/09:00pm 3.4 -4.7 3.1 98 0.1 WNW 35 50 19 27 - - 0.8
12/08:57pm 3.3 -4.3 3.0 98 0.1 WNW 32 50 17 27 - - 0.8
12/08:30pm 3.1 -3.3 3.0 99 0.0 WNW 26 41 14 22 - - 0.6
12/08:00pm 3.0 -6.7 2.7 98 0.1 W 43 65 23 35 - - 0.4
12/07:42pm 3.9 -3.7 2.7 92 0.5 WNW 32 61 17 33 - - 0.0
12/07:40pm 4.3 -2.6 2.8 90 0.6 WNW 28 57 15 31 - - 0.0
12/07:30pm 4.6 -0.8 2.6 87 0.9 WNW 20 33 11 18 - - 0.0
12/07:00pm 4.6 -0.6 2.5 86 0.9 NW 19 26 10 14 - - 0.0
12/06:30pm 5.0 -0.4 2.4 83 1.1 NW 20 28 11 15 - - 0.0
12/06:00pm 4.5 0.0 2.2 85 1.0 NW 15 20 8 11 - - 0.0
12/05:30pm 4.9 0.0 2.1 82 1.2 NNW 17 24 9 13 - - 0.0
12/05:00pm 4.7 -0.8 2.1 83 1.1 NW 20 28 11 15 - - 0.0
12/04:30pm 5.1 -0.1 2.3 82 1.2 NW 19 26 10 14 - - 0.0
12/04:00pm 5.6 -0.9 2.9 83 1.2 WNW 26 35 14 19 - - 0.0
12/03:30pm 5.5 0.1 2.7 82 1.2 NW 20 32 11 17 - - 0.0
12/03:00pm 5.4 -0.3 2.8 83 1.1 NW 22 28 12 15 - - 0.0
12/02:35pm 5.2 -2.5 2.2 81 1.3 NW 32 50 17 27 - - 0.0
12/02:30pm 5.3 -2.0 2.5 82 1.2 WNW 30 44 16 24 - - 0.0
12/02:10pm 5.9 -1.7 2.7 80 1.4 NW 32 54 17 29 - - 0.0
12/02:00pm 6.4 -1.3 2.3 75 1.8 NW 32 43 17 23 - - 0.0
12/01:30pm 7.9 2.1 4.3 78 1.7 NW 24 35 13 19 - - 0.0
12/01:00pm 8.2 3.4 4.4 77 1.8 WNW 19 35 10 19 - - 0.0
12/12:30pm 6.9 1.4 3.9 81 1.4 WNW 22 33 12 18 - - 0.0
12/12:00pm 5.9 0.2 3.1 82 1.2 NW 22 33 12 18 - - 0.0
12/11:30am 4.4 -2.4 2.9 90 0.6 W 28 44 15 24 - - 0.0
12/11:07am 5.2 -2.4 2.9 85 1.0 WNW 32 50 17 27 - - 0.0
12/11:00am 5.5 -1.5 4.2 91 0.6 WNW 30 46 16 25 - - 0.0
12/10:30am 4.9 -1.8 3.4 90 0.7 WNW 28 35 15 19 - - 0.0
12/10:00am 4.8 -1.1 3.8 93 0.4 WNW 24 30 13 16 - - 0.0
12/09:30am 3.8 -3.4 3.1 95 0.3 WNW 30 41 16 22 - - 0.0
12/09:00am 3.4 -2.7 3.0 97 0.2 WNW 24 33 13 18 - - 0.4

Other formats

Comma delimited format used in spreadsheet applications
http://www.bom.gov.au/fwo/IDT60801/IDT60801.94977.axf

JavaScript Object Notation format (JSON) in row-major order
http://www.bom.gov.au/fwo/IDT60801/IDT60801.94977.json

Data quality

Most of these data are generated automatically and are frequently updated. Quality checks on data are not normally performed. It is possible for incorrect values to appear. Refer to information at About Latest Weather Observations and please check the disclaimer before using these data.